createdAt,value
2018-04-11T00:01:01.216Z,0
2018-04-11T00:02:11.405Z,0
2018-04-11T00:03:21.567Z,0
2018-04-11T00:04:31.704Z,0
2018-04-11T00:05:41.891Z,0
2018-04-11T00:06:52.057Z,0
2018-04-11T00:08:02.225Z,0
2018-04-11T00:09:12.364Z,0
2018-04-11T00:10:22.515Z,0
2018-04-11T00:11:32.776Z,0
2018-04-11T00:12:42.959Z,0
2018-04-11T00:13:52.974Z,0
2018-04-11T00:15:03.129Z,0
2018-04-11T00:16:13.284Z,0
2018-04-11T00:17:23.476Z,0
2018-04-11T00:18:33.650Z,0
2018-04-11T00:19:43.906Z,0
2018-04-11T00:20:54.086Z,0
2018-04-11T00:22:04.337Z,0
2018-04-11T00:23:14.553Z,0
2018-04-11T00:24:24.699Z,0
2018-04-11T00:25:34.918Z,0
2018-04-11T00:26:45.144Z,0
2018-04-11T00:27:55.102Z,0
2018-04-11T00:29:05.298Z,0
2018-04-11T00:30:15.423Z,0
2018-04-11T00:31:25.585Z,0
2018-04-11T00:32:35.797Z,0
2018-04-11T00:33:45.982Z,0
2018-04-11T00:34:56.322Z,0
2018-04-11T00:36:06.587Z,0
2018-04-11T00:37:16.785Z,0
2018-04-11T00:38:26.971Z,0
2018-04-11T00:39:37.241Z,0
2018-04-11T00:40:47.466Z,0
2018-04-11T00:41:57.634Z,0
2018-04-11T00:43:07.809Z,0
2018-04-11T00:44:18.042Z,0
2018-04-11T00:45:29.211Z,0
2018-04-11T00:46:39.417Z,0
2018-04-11T00:47:49.293Z,0
2018-04-11T00:48:59.456Z,0
2018-04-11T00:50:09.675Z,0
2018-04-11T00:51:19.577Z,0
2018-04-11T00:52:29.753Z,0
2018-04-11T00:53:40.118Z,0
2018-04-11T00:54:50.311Z,0
2018-04-11T00:56:00.704Z,0
2018-04-11T00:57:10.881Z,0
2018-04-11T00:58:21.124Z,0
2018-04-11T00:59:31.314Z,0
2018-04-11T01:00:41.481Z,0
2018-04-11T01:01:51.736Z,0
2018-04-11T01:03:01.611Z,0
2018-04-11T01:04:11.891Z,0
2018-04-11T01:05:22.085Z,0
2018-04-11T01:06:32.261Z,0
2018-04-11T01:07:42.420Z,0
2018-04-11T01:08:52.586Z,0
2018-04-11T01:10:02.847Z,0
2018-04-11T01:11:13.117Z,0
2018-04-11T01:12:23.308Z,0
2018-04-11T01:13:33.550Z,0
2018-04-11T01:14:43.886Z,0
2018-04-11T01:15:54.089Z,0
2018-04-11T01:17:04.244Z,0
2018-04-11T01:18:14.441Z,0
2018-04-11T01:19:24.604Z,0
2018-04-11T01:20:34.902Z,0
2018-04-11T01:21:45.075Z,0
2018-04-11T01:22:55.323Z,0
2018-04-11T01:24:05.506Z,0
2018-04-11T01:25:15.817Z,0
2018-04-11T01:26:26.029Z,0
2018-04-11T01:27:36.180Z,0
2018-04-11T01:28:46.462Z,0
2018-04-11T01:29:56.722Z,0
2018-04-11T01:31:06.928Z,0
2018-04-11T01:32:17.082Z,0
2018-04-11T01:33:27.271Z,0
2018-04-11T01:34:37.561Z,0
2018-04-11T01:35:47.772Z,0
2018-04-11T01:36:58.079Z,0
2018-04-11T01:38:08.254Z,0
2018-04-11T01:39:18.592Z,0
2018-04-11T01:40:28.719Z,0
2018-04-11T01:41:38.913Z,0
2018-04-11T01:42:49.125Z,0
2018-04-11T01:43:59.337Z,0
2018-04-11T01:45:09.541Z,0
2018-04-11T01:46:19.891Z,0
2018-04-11T01:47:30.051Z,0
2018-04-11T01:48:40.201Z,0
2018-04-11T01:49:50.464Z,0
2018-04-11T01:51:00.396Z,0
2018-04-11T01:52:10.567Z,0
2018-04-11T01:53:20.700Z,0
2018-04-11T01:54:31.963Z,0
2018-04-11T01:55:42.126Z,0
2018-04-11T01:56:52.298Z,0
2018-04-11T01:58:02.473Z,0
2018-04-11T01:59:12.756Z,0
2018-04-11T02:00:22.898Z,0
2018-04-11T02:01:33.104Z,0
2018-04-11T02:02:43.251Z,0
2018-04-11T02:03:53.216Z,0
2018-04-11T02:05:03.087Z,0
2018-04-11T02:06:13.244Z,0
2018-04-11T02:07:23.395Z,0
2018-04-11T02:08:33.598Z,0
2018-04-11T02:09:43.628Z,0
2018-04-11T02:10:53.819Z,0
2018-04-11T02:12:03.996Z,0
2018-04-11T02:13:14.383Z,0
2018-04-11T02:14:24.220Z,0
2018-04-11T02:15:34.396Z,0
2018-04-11T02:16:44.319Z,0
2018-04-11T02:17:54.471Z,0
2018-04-11T02:19:04.621Z,0
2018-04-11T02:20:14.776Z,0
2018-04-11T02:21:25.082Z,0
2018-04-11T02:22:35.243Z,0
2018-04-11T02:23:45.400Z,0
2018-04-11T02:24:55.675Z,0
2018-04-11T02:26:05.832Z,0
2018-04-11T02:27:15.999Z,0
2018-04-11T02:28:26.198Z,0
2018-04-11T02:29:36.350Z,0
2018-04-11T02:30:46.512Z,0
2018-04-11T02:31:56.710Z,0
2018-04-11T02:33:06.908Z,0
2018-04-11T02:34:17.109Z,0
2018-04-11T02:35:27.261Z,0
2018-04-11T02:36:37.143Z,0
2018-04-11T02:37:47.051Z,0
2018-04-11T02:38:57.249Z,0
2018-04-11T02:40:07.425Z,0
2018-04-11T02:41:17.587Z,0
2018-04-11T02:42:27.588Z,0
2018-04-11T02:43:37.797Z,0
2018-04-11T02:44:48.102Z,0
2018-04-11T02:45:58.310Z,0
2018-04-11T02:47:08.497Z,0
2018-04-11T02:48:18.379Z,0
2018-04-11T02:49:28.272Z,0
2018-04-11T02:50:38.403Z,0
2018-04-11T02:51:48.547Z,0
2018-04-11T02:52:58.685Z,0
2018-04-11T02:54:08.776Z,0
2018-04-11T02:55:19.219Z,0
2018-04-11T02:56:29.350Z,0
2018-04-11T02:57:39.494Z,0
2018-04-11T02:58:49.654Z,0
2018-04-11T02:59:59.852Z,0
2018-04-11T03:01:10.085Z,0
2018-04-11T03:02:20.350Z,0
2018-04-11T03:03:29.972Z,0
2018-04-11T03:04:40.117Z,0
2018-04-11T03:05:50.289Z,0
2018-04-11T03:07:00.401Z,0
2018-04-11T03:08:10.553Z,0
2018-04-11T03:09:20.779Z,0
2018-04-11T03:10:30.997Z,0
2018-04-11T03:11:41.165Z,0
2018-04-11T03:12:51.316Z,0
2018-04-11T03:14:01.612Z,0
2018-04-11T03:15:11.617Z,0
2018-04-11T03:16:21.733Z,0
2018-04-11T03:17:31.875Z,0
2018-04-11T03:18:42.002Z,0
2018-04-11T03:19:52.173Z,0
2018-04-11T03:21:02.391Z,0
2018-04-11T03:22:11.997Z,0
2018-04-11T03:23:21.619Z,0
2018-04-11T03:24:31.609Z,0
2018-04-11T03:25:41.831Z,0
2018-04-11T03:26:52.167Z,0
2018-04-11T03:28:02.352Z,0
2018-04-11T03:29:12.490Z,0
2018-04-11T03:30:22.736Z,0
2018-04-11T03:31:32.956Z,0
2018-04-11T03:32:43.177Z,0
2018-04-11T03:33:53.328Z,0
2018-04-11T03:35:03.552Z,0
2018-04-11T03:36:13.769Z,0
2018-04-11T03:37:23.924Z,0
2018-04-11T03:38:34.319Z,0
2018-04-11T03:39:44.533Z,0
2018-04-11T03:40:54.704Z,0
2018-04-11T03:42:05.008Z,0
2018-04-11T03:43:15.225Z,0
2018-04-11T03:44:25.364Z,0
2018-04-11T03:45:35.528Z,0
2018-04-11T03:46:45.879Z,0
2018-04-11T03:47:56.142Z,0
2018-04-11T03:49:06.027Z,0
2018-04-11T03:50:15.964Z,0
2018-04-11T03:51:26.117Z,0
2018-04-11T03:52:36.241Z,0
2018-04-11T03:53:46.214Z,0
2018-04-11T03:54:56.592Z,0
2018-04-11T03:56:06.731Z,0
2018-04-11T03:57:16.858Z,0
2018-04-11T03:58:27.049Z,4
2018-04-11T03:59:37.272Z,4
2018-04-11T04:00:47.525Z,4
2018-04-11T04:01:57.747Z,0
2018-04-11T04:03:07.972Z,0
2018-04-11T04:04:17.869Z,4
2018-04-11T04:05:28.086Z,4
2018-04-11T04:06:38.219Z,4
2018-04-11T04:07:48.273Z,4
2018-04-11T04:08:58.512Z,4
2018-04-11T04:10:08.713Z,8
2018-04-11T04:11:18.852Z,8
2018-04-11T04:12:29.026Z,8
2018-04-11T04:13:39.209Z,12
2018-04-11T04:14:49.377Z,12
2018-04-11T04:15:59.511Z,12
2018-04-11T04:17:09.377Z,12
2018-04-11T04:18:19.516Z,16
2018-04-11T04:19:29.665Z,24
2018-04-11T04:20:39.832Z,28
2018-04-11T04:21:50.029Z,32
2018-04-11T04:23:00.218Z,40
2018-04-11T04:24:10.360Z,44
2018-04-11T04:25:20.490Z,56
2018-04-11T04:26:30.618Z,68
2018-04-11T04:27:40.750Z,84
2018-04-11T04:28:50.921Z,92
2018-04-11T04:30:01.104Z,100
2018-04-11T04:31:11.285Z,108
2018-04-11T04:32:21.533Z,116
2018-04-11T04:33:31.712Z,128
2018-04-11T04:34:41.865Z,144
2018-04-11T04:35:52.008Z,156
2018-04-11T04:37:02.147Z,172
2018-04-11T04:38:12.311Z,192
2018-04-11T04:39:22.469Z,212
2018-04-11T04:40:32.662Z,228
2018-04-11T04:41:42.916Z,244
2018-04-11T04:42:53.180Z,264
2018-04-11T04:44:03.320Z,288
2018-04-11T04:45:13.538Z,308
2018-04-11T04:46:23.734Z,320
2018-04-11T04:47:33.588Z,332
2018-04-11T04:48:43.809Z,348
2018-04-11T04:49:53.967Z,360
2018-04-11T04:51:04.214Z,368
2018-04-11T04:52:14.431Z,368
2018-04-11T04:53:24.647Z,360
2018-04-11T04:54:34.826Z,340
2018-04-11T04:55:45.067Z,320
2018-04-11T04:56:55.245Z,308
2018-04-11T04:58:05.137Z,300
2018-04-11T04:59:15.306Z,296
2018-04-11T05:00:25.464Z,296
2018-04-11T05:01:35.598Z,308
2018-04-11T05:02:45.634Z,340
2018-04-11T05:03:55.796Z,360
2018-04-11T05:05:05.670Z,380
2018-04-11T05:06:15.859Z,416
2018-04-11T05:07:25.758Z,476
2018-04-11T05:08:35.397Z,552
2018-04-11T05:09:45.467Z,596
2018-04-11T05:10:55.609Z,624
2018-04-11T05:12:05.786Z,636
2018-04-11T05:13:15.932Z,632
2018-04-11T05:14:26.100Z,636
2018-04-11T05:15:36.323Z,648
2018-04-11T05:16:46.497Z,632
2018-04-11T05:17:56.634Z,604
2018-04-11T05:19:07.027Z,620
2018-04-11T05:20:17.189Z,720
2018-04-11T05:21:27.428Z,892
2018-04-11T05:22:37.766Z,1068
2018-04-11T05:23:47.975Z,1240
2018-04-11T05:24:58.157Z,1388
2018-04-11T05:26:08.033Z,1472
2018-04-11T05:27:18.376Z,1504
2018-04-11T05:28:28.644Z,1500
2018-04-11T05:29:38.775Z,1460
2018-04-11T05:30:48.972Z,1400
2018-04-11T05:31:59.128Z,1372
2018-04-11T05:33:09.278Z,1380
2018-04-11T05:34:19.474Z,1444
2018-04-11T05:35:29.693Z,1580
2018-04-11T05:36:39.901Z,1708
2018-04-11T05:37:50.059Z,1780
2018-04-11T05:39:00.344Z,1840
2018-04-11T05:40:10.615Z,1872
2018-04-11T05:41:20.782Z,1768
2018-04-11T05:42:31.010Z,1664
2018-04-11T05:43:41.150Z,1636
2018-04-11T05:44:51.397Z,1708
2018-04-11T05:46:01.284Z,1804
2018-04-11T05:47:11.424Z,1896
2018-04-11T05:48:21.348Z,1904
2018-04-11T05:49:31.478Z,1828
2018-04-11T05:50:41.628Z,1732
2018-04-11T05:51:51.781Z,1600
2018-04-11T05:53:01.744Z,1476
2018-04-11T05:54:11.753Z,1336
2018-04-11T05:55:21.943Z,1228
2018-04-11T05:56:32.149Z,1256
2018-04-11T05:57:42.322Z,1404
2018-04-11T05:58:52.634Z,1584
2018-04-11T06:00:02.840Z,1784
2018-04-11T06:01:13.077Z,1980
2018-04-11T06:02:22.711Z,2096
2018-04-11T06:03:32.558Z,2160
2018-04-11T06:04:42.716Z,2220
2018-04-11T06:05:53.008Z,2264
2018-04-11T06:07:03.215Z,2324
2018-04-11T06:08:13.356Z,2440
2018-04-11T06:09:23.500Z,2584
2018-04-11T06:10:33.731Z,2756
2018-04-11T06:11:44.040Z,2952
2018-04-11T06:12:54.290Z,3160
2018-04-11T06:14:04.460Z,3228
2018-04-11T06:15:14.618Z,3296
2018-04-11T06:16:24.751Z,3352
2018-04-11T06:17:34.930Z,3420
2018-04-11T06:18:45.135Z,3512
2018-04-11T06:19:55.290Z,3604
2018-04-11T06:21:05.448Z,3720
2018-04-11T06:22:15.606Z,3928
2018-04-11T06:23:25.832Z,4296
2018-04-11T06:24:36.088Z,4780
2018-04-11T06:25:46.242Z,5164
2018-04-11T06:26:56.573Z,5332
2018-04-11T06:28:06.914Z,5228
2018-04-11T06:29:17.115Z,4876
2018-04-11T06:30:27.264Z,4296
2018-04-11T06:31:37.455Z,3972
2018-04-11T06:32:47.673Z,3848
2018-04-11T06:33:57.926Z,3796
2018-04-11T06:35:08.280Z,3880
2018-04-11T06:36:18.469Z,4228
2018-04-11T06:37:28.654Z,5004
2018-04-11T06:38:38.801Z,5976
2018-04-11T06:39:48.758Z,6172
2018-04-11T06:40:58.927Z,5972
2018-04-11T06:42:09.215Z,6100
2018-04-11T06:43:19.413Z,6016
2018-04-11T06:44:29.574Z,5648
2018-04-11T06:45:39.749Z,5620
2018-04-11T06:46:49.941Z,5800
2018-04-11T06:48:00.106Z,5992
2018-04-11T06:49:10.301Z,5980
2018-04-11T06:50:20.458Z,6044
2018-04-11T06:51:30.652Z,6060
2018-04-11T06:52:40.881Z,6736
2018-04-11T06:53:51.049Z,8324
2018-04-11T06:55:01.234Z,10084
2018-04-11T06:56:11.367Z,11064
2018-04-11T06:57:21.324Z,11176
2018-04-11T06:58:31.512Z,11268
2018-04-11T06:59:41.838Z,11788
2018-04-11T07:00:52.032Z,12340
2018-04-11T07:02:01.929Z,12932
2018-04-11T07:03:12.147Z,12000
2018-04-11T07:04:22.311Z,10620
2018-04-11T07:05:32.464Z,10060
2018-04-11T07:06:42.696Z,9348
2018-04-11T07:07:52.878Z,9036
2018-04-11T07:09:03.109Z,8000
2018-04-11T07:10:13.279Z,7940
2018-04-11T07:11:23.550Z,8056
2018-04-11T07:12:34.924Z,7940
2018-04-11T07:13:45.082Z,7588
2018-04-11T07:14:55.235Z,7464
2018-04-11T07:16:05.371Z,8548
2018-04-11T07:17:15.556Z,10016
2018-04-11T07:18:25.833Z,11500
2018-04-11T07:19:35.990Z,12156
2018-04-11T07:20:45.894Z,11716
2018-04-11T07:21:56.048Z,11080
2018-04-11T07:23:06.226Z,10880
2018-04-11T07:24:16.409Z,10644
2018-04-11T07:25:29.386Z,11000
2018-04-11T07:26:39.525Z,10568
2018-04-11T07:27:49.695Z,10244
2018-04-11T07:28:59.863Z,10652
2018-04-11T07:30:10.307Z,12416
2018-04-11T07:31:21.907Z,10636
2018-04-11T07:32:32.053Z,11636
2018-04-11T07:33:43.534Z,10976
2018-04-11T07:34:53.469Z,11228
2018-04-11T07:37:17.471Z,12212
2018-04-11T07:38:27.626Z,12088
2018-04-11T07:40:52.736Z,12052
2018-04-11T07:43:46.328Z,12860
2018-04-11T07:47:26.678Z,13204
2018-04-11T07:48:36.885Z,12380
2018-04-11T07:49:47.040Z,15616
2018-04-11T07:50:57.198Z,15324
2018-04-11T07:52:07.373Z,14184
2018-04-11T07:53:17.547Z,15140
2018-04-11T07:54:27.745Z,13232
2018-04-11T07:55:37.973Z,9264
2018-04-11T07:56:48.119Z,12432
2018-04-11T07:57:58.379Z,15840
2018-04-11T07:59:08.529Z,13364
2018-04-11T08:00:18.697Z,11620
2018-04-11T08:01:28.950Z,13284
2018-04-11T08:03:54.707Z,15552
2018-04-11T08:05:04.885Z,11488
2018-04-11T08:06:15.664Z,11620
2018-04-11T08:09:58.348Z,11552
2018-04-11T08:11:08.652Z,11400
2018-04-11T08:12:18.889Z,12096
2018-04-11T08:13:29.078Z,13068
2018-04-11T08:14:39.259Z,14488
2018-04-11T08:15:49.442Z,15616
2018-04-11T08:16:59.636Z,19584
2018-04-11T08:18:09.785Z,17856
2018-04-11T08:19:20.048Z,16704
2018-04-11T08:20:30.242Z,15160
2018-04-11T08:21:40.392Z,13748
2018-04-11T08:22:50.570Z,17152
2018-04-11T08:24:00.744Z,19904
2018-04-11T08:25:10.980Z,16096
2018-04-11T08:26:21.121Z,17120
2018-04-11T08:27:31.375Z,13708
2018-04-11T08:28:41.581Z,15064
2018-04-11T08:29:51.895Z,18016
2018-04-11T08:31:02.139Z,16512
2018-04-11T08:32:12.302Z,17024
2018-04-11T08:33:22.522Z,17344
2018-04-11T08:34:32.704Z,18976
2018-04-11T08:35:42.863Z,19776
2018-04-11T08:36:53.112Z,21504
2018-04-11T08:38:03.330Z,29440
2018-04-11T08:39:13.241Z,40192
2018-04-11T08:40:23.407Z,38848
2018-04-11T08:41:33.605Z,41152
2018-04-11T08:42:43.807Z,43360
2018-04-11T08:43:53.981Z,54592
2018-04-11T08:45:04.272Z,57152
2018-04-11T08:46:14.439Z,47968
2018-04-11T08:47:24.453Z,41920
2018-04-11T08:48:34.686Z,26016
2018-04-11T08:49:44.849Z,43872
2018-04-11T08:50:55.015Z,37952
2018-04-11T08:52:05.161Z,36672
2018-04-11T08:53:15.064Z,34912
2018-04-11T08:54:25.256Z,30112
2018-04-11T08:55:35.415Z,52288
2018-04-11T08:56:45.622Z,19328
2018-04-11T08:57:55.794Z,16640
2018-04-11T08:59:05.996Z,22112
2018-04-11T09:00:16.194Z,43552
2018-04-11T09:01:26.399Z,25728
2018-04-11T09:02:36.546Z,24608
2018-04-11T09:03:46.494Z,28096
2018-04-11T09:04:56.645Z,57664
2018-04-11T09:06:06.805Z,40480
2018-04-11T09:07:16.984Z,56544
2018-04-11T09:08:27.266Z,75200
2018-04-11T09:09:37.445Z,55328
2018-04-11T09:10:47.692Z,64096
2018-04-11T09:11:57.908Z,71840
2018-04-11T09:13:08.131Z,62688
2018-04-11T09:14:22.585Z,31904
2018-04-11T09:15:35.381Z,22144
2018-04-11T09:16:46.832Z,24864
2018-04-11T09:17:58.220Z,22112
2018-04-11T09:19:11.935Z,26624
2018-04-11T09:20:27.518Z,19840
2018-04-11T09:21:41.467Z,17440
2018-04-11T09:22:51.603Z,18080
2018-04-11T09:24:01.829Z,20160
2018-04-11T09:25:12.025Z,17664
2018-04-11T09:26:22.204Z,19264
2018-04-11T09:27:32.370Z,16096
2018-04-11T09:28:42.523Z,16704
2018-04-11T09:29:52.683Z,23008
2018-04-11T09:31:02.863Z,32128
2018-04-11T09:32:13.039Z,22304
2018-04-11T09:33:23.345Z,24064
2018-04-11T09:34:34.533Z,27264
2018-04-11T09:35:44.694Z,29696
2018-04-11T09:36:54.628Z,27296
2018-04-11T09:38:04.793Z,24832
2018-04-11T09:39:14.959Z,35744
2018-04-11T09:40:24.965Z,21632
2018-04-11T09:41:35.131Z,28000
2018-04-11T09:42:45.397Z,28896
2018-04-11T09:43:55.576Z,23264
2018-04-11T09:45:05.751Z,18592
2018-04-11T09:46:15.887Z,20224
2018-04-11T09:47:26.073Z,23008
2018-04-11T09:48:36.287Z,26176
2018-04-11T09:49:46.447Z,17568
2018-04-11T09:50:56.610Z,16256
2018-04-11T09:52:06.856Z,17536
2018-04-11T09:53:17.028Z,37952
2018-04-11T09:54:26.935Z,29024
2018-04-11T09:55:37.079Z,47040
2018-04-11T09:56:47.251Z,65920
2018-04-11T09:57:57.421Z,43168
2018-04-11T09:59:07.593Z,74688
2018-04-11T10:00:17.750Z,71168
2018-04-11T10:01:27.959Z,30176
2018-04-11T10:02:38.153Z,35776
2018-04-11T10:03:48.318Z,29792
2018-04-11T10:04:58.468Z,22944
2018-04-11T10:06:08.656Z,27936
2018-04-11T10:07:18.798Z,27104
2018-04-11T10:08:28.984Z,16224
2018-04-11T10:09:39.202Z,13080
2018-04-11T10:10:49.105Z,13832
2018-04-11T10:11:58.714Z,21344
2018-04-11T10:13:08.625Z,29792
2018-04-11T10:14:18.827Z,51840
2018-04-11T10:15:31.679Z,28192
2018-04-11T10:16:44.675Z,22208
2018-04-11T10:17:55.965Z,25248
2018-04-11T10:19:06.074Z,56224
2018-04-11T10:20:16.321Z,60000
2018-04-11T10:21:26.252Z,60416
2018-04-11T10:22:37.298Z,59520
2018-04-11T10:23:49.899Z,38176
2018-04-11T10:26:17.342Z,27072
2018-04-11T10:27:28.636Z,31680
2018-04-11T10:28:38.861Z,30080
2018-04-11T10:29:49.092Z,34400
2018-04-11T10:30:59.273Z,31040
2018-04-11T10:32:09.119Z,21696
2018-04-11T10:33:19.270Z,20896
2018-04-11T10:34:29.489Z,17760
2018-04-11T10:35:39.666Z,28416
2018-04-11T10:36:49.852Z,32320
2018-04-11T10:37:59.748Z,37728
2018-04-11T10:39:09.924Z,41696
2018-04-11T10:40:20.088Z,57344
2018-04-11T10:41:30.004Z,39904
2018-04-11T10:42:40.204Z,37824
2018-04-11T10:43:50.395Z,36096
2018-04-11T10:45:00.570Z,66912
2018-04-11T10:46:10.855Z,72608
2018-04-11T10:47:21.080Z,64448
2018-04-11T10:48:31.274Z,54144
2018-04-11T10:49:41.501Z,37280
2018-04-11T10:50:51.672Z,54080
2018-04-11T10:52:04.725Z,30400
2018-04-11T10:54:32.999Z,21664
2018-04-11T10:55:46.764Z,18560
2018-04-11T10:56:58.312Z,12656
2018-04-11T10:58:09.748Z,13004
2018-04-11T10:59:20.840Z,15744
2018-04-11T11:00:31.049Z,28576
2018-04-11T11:01:41.263Z,23104
2018-04-11T11:02:51.495Z,20192
2018-04-11T11:04:01.653Z,21568
2018-04-11T11:05:11.846Z,18720
2018-04-11T11:06:22.182Z,13024
2018-04-11T11:07:32.459Z,14944
2018-04-11T11:08:42.630Z,21024
2018-04-11T11:09:52.949Z,17472
2018-04-11T11:11:03.128Z,11664
2018-04-11T11:12:13.299Z,13188
2018-04-11T11:13:23.469Z,13476
2018-04-11T11:14:33.684Z,13812
2018-04-11T11:15:43.864Z,15840
2018-04-11T11:16:54.171Z,16832
2018-04-11T11:18:04.342Z,15168
2018-04-11T11:19:14.521Z,16192
2018-04-11T11:20:24.714Z,16576
2018-04-11T11:21:34.936Z,12184
2018-04-11T11:22:45.117Z,12360
2018-04-11T11:23:55.342Z,11884
2018-04-11T11:25:05.622Z,13136
2018-04-11T11:26:15.868Z,15520
2018-04-11T11:27:26.162Z,18464
2018-04-11T11:28:36.044Z,20544
2018-04-11T11:29:46.221Z,16288
2018-04-11T11:30:56.388Z,17536
2018-04-11T11:32:06.562Z,38368
2018-04-11T11:33:16.821Z,27936
2018-04-11T11:34:27.016Z,18048
2018-04-11T11:35:37.199Z,16896
2018-04-11T11:36:47.373Z,17824
2018-04-11T11:37:57.570Z,19712
2018-04-11T11:39:07.758Z,16640
2018-04-11T11:40:17.931Z,14032
2018-04-11T11:41:28.103Z,15840
2018-04-11T11:42:38.265Z,29184
2018-04-11T11:43:48.446Z,55776
2018-04-11T11:44:58.633Z,20160
2018-04-11T11:46:08.444Z,18016
2018-04-11T11:47:18.642Z,15840
2018-04-11T11:48:28.827Z,13952
2018-04-11T11:49:39.114Z,15104
2018-04-11T11:50:49.306Z,17888
2018-04-11T11:51:59.495Z,15360
2018-04-11T11:53:09.710Z,16000
2018-04-11T11:54:19.904Z,14352
2018-04-11T11:55:30.091Z,14976
2018-04-11T11:56:40.263Z,16000
2018-04-11T11:57:50.536Z,16160
2018-04-11T11:59:00.746Z,13596
2018-04-11T12:00:10.923Z,15072
2018-04-11T12:01:21.102Z,18048
2018-04-11T12:02:31.321Z,27808
2018-04-11T12:03:41.500Z,18496
2018-04-11T12:04:51.718Z,16288
2018-04-11T12:06:01.897Z,14180
2018-04-11T12:07:12.078Z,14664
2018-04-11T12:08:22.314Z,22880
2018-04-11T12:09:32.590Z,65248
2018-04-11T12:10:42.780Z,75136
2018-04-11T12:11:52.728Z,73600
2018-04-11T12:13:02.635Z,26400
2018-04-11T12:14:12.924Z,27296
2018-04-11T12:15:23.418Z,26592
2018-04-11T12:16:33.373Z,25280
2018-04-11T12:17:43.587Z,32320
2018-04-11T12:18:53.874Z,20096
2018-04-11T12:20:04.125Z,31744
2018-04-11T12:21:14.380Z,20640
2018-04-11T12:22:24.582Z,17408
2018-04-11T12:23:34.805Z,18816
2018-04-11T12:24:45.038Z,52096
2018-04-11T12:25:56.180Z,39552
2018-04-11T12:27:06.454Z,62112
2018-04-11T12:28:16.644Z,27232
2018-04-11T12:29:26.858Z,42656
2018-04-11T12:30:37.084Z,20320
2018-04-11T12:31:47.329Z,23008
2018-04-11T12:32:57.481Z,26912
2018-04-11T12:37:58.338Z,16992
2018-04-11T12:39:08.518Z,17024
2018-04-11T12:40:18.834Z,19232
2018-04-11T12:41:29.017Z,21792
2018-04-11T12:42:39.240Z,36384
2018-04-11T12:43:49.200Z,25056
2018-04-11T12:44:59.366Z,25760
2018-04-11T12:46:09.880Z,19872
2018-04-11T12:47:20.095Z,15200
2018-04-11T12:48:30.289Z,13852
2018-04-11T12:49:40.485Z,11928
2018-04-11T12:50:50.818Z,11224
2018-04-11T12:52:01.001Z,11068
2018-04-11T12:53:10.927Z,10076
2018-04-11T12:54:20.948Z,9540
2018-04-11T12:55:31.225Z,9856
2018-04-11T12:56:41.476Z,11964
2018-04-11T12:57:51.707Z,19680
2018-04-11T12:59:01.864Z,29152
2018-04-11T13:00:11.808Z,57600
2018-04-11T13:01:21.999Z,63040
2018-04-11T13:02:31.655Z,69280
2018-04-11T13:03:41.826Z,68256
2018-04-11T13:04:51.987Z,56544
2018-04-11T13:06:02.298Z,62656
2018-04-11T13:07:12.548Z,68192
2018-04-11T13:08:22.693Z,71104
2018-04-11T13:09:32.959Z,62912
2018-04-11T13:11:15.669Z,36288
2018-04-11T13:12:25.887Z,36032
2018-04-11T13:13:36.112Z,32288
2018-04-11T13:14:46.332Z,38848
2018-04-11T13:15:56.551Z,38400
2018-04-11T13:17:06.714Z,33632
2018-04-11T13:18:17.959Z,28832
2018-04-11T13:19:28.323Z,23520
2018-04-11T13:20:38.557Z,21696
2018-04-11T13:21:48.796Z,20608
2018-04-11T13:22:59.066Z,19104
2018-04-11T13:24:09.284Z,16352
2018-04-11T13:25:19.235Z,14388
2018-04-11T13:26:29.504Z,14784
2018-04-11T13:27:39.807Z,16736
2018-04-11T13:28:50.128Z,21664
2018-04-11T13:29:59.921Z,21952
2018-04-11T13:31:10.136Z,22720
2018-04-11T13:32:20.310Z,66304
2018-04-11T13:33:30.257Z,57248
2018-04-11T13:34:40.455Z,30944
2018-04-11T13:35:50.637Z,48096
2018-04-11T13:37:00.807Z,68928
2018-04-11T13:38:11.026Z,60992
2018-04-11T13:39:21.244Z,53472
2018-04-11T13:40:31.414Z,37600
2018-04-11T13:41:41.674Z,29952
2018-04-11T13:42:51.874Z,62592
2018-04-11T13:44:02.058Z,53600
2018-04-11T13:45:12.260Z,39360
2018-04-11T13:46:22.445Z,70752
2018-04-11T13:47:32.793Z,65472
2018-04-11T13:48:43.036Z,39200
2018-04-11T13:49:53.232Z,51040
2018-04-11T13:51:03.430Z,63328
2018-04-11T13:52:13.582Z,68704
2018-04-11T13:53:23.506Z,26208
2018-04-11T13:54:33.682Z,19200
2018-04-11T13:55:43.899Z,12360
2018-04-11T13:56:54.053Z,9316
2018-04-11T13:58:04.320Z,6744
2018-04-11T13:59:14.491Z,5460
2018-04-11T14:00:24.426Z,4728
2018-04-11T14:01:34.623Z,4312
2018-04-11T14:02:44.822Z,3936
2018-04-11T14:03:55.003Z,3540
2018-04-11T14:05:05.182Z,3184
2018-04-11T14:06:15.392Z,2948
2018-04-11T14:07:25.582Z,3164
2018-04-11T14:08:35.491Z,3604
2018-04-11T14:09:45.697Z,4020
2018-04-11T14:10:55.739Z,4448
2018-04-11T14:12:05.945Z,4468
2018-04-11T14:13:16.131Z,4700
2018-04-11T14:14:26.550Z,5068
2018-04-11T14:15:36.859Z,5812
2018-04-11T14:16:47.126Z,7116
2018-04-11T14:17:57.272Z,7696
2018-04-11T14:19:07.482Z,7380
2018-04-11T14:20:17.661Z,7148
2018-04-11T14:21:27.854Z,8144
2018-04-11T14:22:38.020Z,11296
2018-04-11T14:23:48.210Z,8476
2018-04-11T14:24:58.385Z,7752
2018-04-11T14:26:08.561Z,7908
2018-04-11T14:27:18.841Z,7852
2018-04-11T14:28:29.010Z,6980
2018-04-11T14:29:39.329Z,5940
2018-04-11T14:30:49.285Z,6260
2018-04-11T14:31:59.554Z,7848
2018-04-11T14:33:09.803Z,19584
2018-04-11T14:34:20.047Z,8700
2018-04-11T14:35:30.405Z,8000
2018-04-11T14:36:40.314Z,7904
2018-04-11T14:37:50.522Z,8912
2018-04-11T14:39:00.712Z,11328
2018-04-11T14:40:10.894Z,28736
2018-04-11T14:41:21.113Z,29824
2018-04-11T14:42:31.308Z,35936
2018-04-11T14:43:41.513Z,36448
2018-04-11T14:44:51.709Z,35744
2018-04-11T14:46:01.932Z,21248
2018-04-11T14:47:12.107Z,25216
2018-04-11T14:48:22.331Z,18624
2018-04-11T14:49:32.513Z,18592
2018-04-11T14:50:42.734Z,15872
2018-04-11T14:51:52.900Z,31584
2018-04-11T14:53:03.088Z,27296
2018-04-11T14:54:13.932Z,24256
2018-04-11T14:55:24.133Z,30304
2018-04-11T14:56:34.352Z,17248
2018-04-11T14:57:44.513Z,21408
2018-04-11T14:58:54.725Z,17216
2018-04-11T15:00:05.179Z,18304
2018-04-11T15:01:15.463Z,23680
2018-04-11T15:02:25.690Z,22080
2018-04-11T15:03:35.900Z,9276
2018-04-11T15:04:45.909Z,10204
2018-04-11T15:05:56.136Z,10708
2018-04-11T15:07:06.350Z,11244
2018-04-11T15:08:16.555Z,10888
2018-04-11T15:09:26.503Z,9808
2018-04-11T15:10:36.422Z,10520
2018-04-11T15:11:47.719Z,12900
2018-04-11T15:12:57.656Z,20864
2018-04-11T15:14:07.895Z,23968
2018-04-11T15:15:18.060Z,24480
2018-04-11T15:16:28.257Z,26656
2018-04-11T15:17:38.256Z,27392
2018-04-11T15:18:48.198Z,27104
2018-04-11T15:19:58.401Z,25824
2018-04-11T15:21:08.618Z,23264
2018-04-11T15:22:18.820Z,23712
2018-04-11T15:23:29.033Z,22688
2018-04-11T15:24:39.210Z,22336
2018-04-11T15:25:49.421Z,22400
2018-04-11T15:26:59.631Z,24640
2018-04-11T15:28:09.880Z,26304
2018-04-11T15:29:19.710Z,24800
2018-04-11T15:30:29.939Z,25728
2018-04-11T15:31:40.150Z,25056
2018-04-11T15:32:50.322Z,24384
2018-04-11T15:34:00.583Z,21792
2018-04-11T15:35:10.873Z,16160
2018-04-11T15:36:21.118Z,12260
2018-04-11T15:37:31.304Z,11420
2018-04-11T15:38:41.508Z,15072
2018-04-11T15:39:51.726Z,16896
2018-04-11T15:41:01.936Z,15840
2018-04-11T15:42:12.150Z,17632
2018-04-11T15:43:22.351Z,14624
2018-04-11T15:44:32.628Z,9512
2018-04-11T15:45:42.839Z,8996
2018-04-11T15:46:53.130Z,8624
2018-04-11T15:48:03.390Z,8180
2018-04-11T15:49:13.616Z,7836
2018-04-11T15:50:23.880Z,7692
2018-04-11T15:51:34.103Z,7572
2018-04-11T15:52:44.348Z,7392
2018-04-11T15:53:54.643Z,7228
2018-04-11T15:55:04.909Z,7096
2018-04-11T15:56:15.181Z,7084
2018-04-11T15:57:25.529Z,7312
2018-04-11T15:58:35.748Z,7712
2018-04-11T15:59:45.957Z,7808
2018-04-11T16:00:56.139Z,7628
2018-04-11T16:02:06.313Z,7308
2018-04-11T16:03:16.508Z,6992
2018-04-11T16:04:26.669Z,6980
2018-04-11T16:05:36.857Z,7024